createdAt,value
2017-03-07T00:00:25.474Z,3.08
2017-03-07T00:01:26.125Z,3.11
2017-03-07T00:02:25.141Z,3.23
2017-03-07T00:03:25.579Z,3.11
2017-03-07T00:04:25.649Z,3.14
2017-03-07T00:05:25.543Z,3.2
2017-03-07T00:06:25.686Z,3.19
2017-03-07T00:07:25.395Z,3.21
2017-03-07T00:08:26.223Z,3.26
2017-03-07T00:09:25.706Z,3.16
2017-03-07T00:10:24.976Z,3.09
2017-03-07T00:11:25.223Z,3.21
2017-03-07T00:12:25.610Z,3.16
2017-03-07T00:13:25.499Z,3.11
2017-03-07T00:14:25.860Z,3.09
2017-03-07T00:15:25.530Z,3.17
2017-03-07T00:16:25.374Z,3.26
2017-03-07T00:17:25.398Z,3.2
2017-03-07T00:18:25.851Z,3.2
2017-03-07T00:19:25.767Z,3.23
2017-03-07T00:20:25.886Z,3.2
2017-03-07T00:21:25.994Z,3.23
2017-03-07T00:22:26.083Z,3.24
2017-03-07T00:23:25.177Z,3.2
2017-03-07T00:24:25.316Z,3.24
2017-03-07T00:25:25.326Z,3.24
2017-03-07T00:26:25.446Z,3.23
2017-03-07T00:27:24.878Z,3.24
2017-03-07T00:28:24.998Z,3.21
2017-03-07T00:29:24.854Z,3.21
2017-03-07T00:30:24.694Z,3.24
2017-03-07T00:31:24.671Z,3.2
2017-03-07T00:32:25.739Z,3.26
2017-03-07T00:33:25.798Z,3.2
2017-03-07T00:34:25.973Z,3.17
2017-03-07T00:35:25.180Z,3.21
2017-03-07T00:36:25.914Z,3.23
2017-03-07T00:37:25.350Z,3.16
2017-03-07T00:38:25.673Z,3.2
2017-03-07T00:39:24.950Z,3.19
2017-03-07T00:40:25.005Z,3.21
2017-03-07T00:41:25.337Z,3.2
2017-03-07T00:42:25.083Z,3.23
2017-03-07T00:43:25.139Z,3.23
2017-03-07T00:44:25.011Z,3.21
2017-03-07T00:45:25.365Z,3.2
2017-03-07T00:46:24.502Z,3.21
2017-03-07T00:47:25.837Z,3.26
2017-03-07T00:48:24.638Z,3.2
2017-03-07T00:49:24.482Z,3.19
2017-03-07T00:50:24.467Z,3.21
2017-03-07T00:51:24.443Z,3.2
2017-03-07T00:52:24.826Z,3.32
2017-03-07T00:53:24.830Z,3.32
2017-03-07T00:54:24.409Z,3.23
2017-03-07T00:55:24.788Z,3.23
2017-03-07T00:56:24.779Z,3.23
2017-03-07T00:57:24.760Z,3.21
2017-03-07T00:58:24.739Z,3.23
2017-03-07T00:59:24.732Z,3.19
2017-03-07T01:00:24.711Z,3.09
2017-03-07T01:01:24.698Z,3.14
2017-03-07T01:02:24.312Z,3.17
2017-03-07T01:03:24.685Z,3.14
2017-03-07T01:04:24.256Z,3.09
2017-03-07T01:05:24.641Z,3.14
2017-03-07T01:06:24.622Z,3.06
2017-03-07T01:07:24.609Z,3.08
2017-03-07T01:08:24.598Z,3.05
2017-03-07T01:09:24.580Z,3.03
2017-03-07T01:10:24.583Z,2.95
2017-03-07T01:11:24.552Z,3.11
2017-03-07T01:12:24.559Z,3.08
2017-03-07T01:13:24.542Z,2.99
2017-03-07T01:14:24.509Z,3.01
2017-03-07T01:15:24.509Z,3.05
2017-03-07T01:16:24.499Z,2.87
2017-03-07T01:17:24.475Z,2.91
2017-03-07T01:18:24.460Z,3.03
2017-03-07T01:19:24.438Z,2.99
2017-03-07T01:20:24.036Z,2.98
2017-03-07T01:21:24.406Z,3.03
2017-03-07T01:22:24.427Z,2.95
2017-03-07T01:23:24.375Z,3.01
2017-03-07T01:24:24.369Z,2.93
2017-03-07T01:25:24.359Z,2.95
2017-03-07T01:26:23.946Z,2.95
2017-03-07T01:27:23.920Z,3.01
2017-03-07T01:28:23.927Z,2.99
2017-03-07T01:29:24.292Z,2.87
2017-03-07T01:30:23.878Z,2.96
2017-03-07T01:31:23.879Z,2.91
2017-03-07T01:32:24.277Z,2.93
2017-03-07T01:33:24.235Z,2.87
2017-03-07T01:34:24.246Z,2.88
2017-03-07T01:35:24.200Z,2.91
2017-03-07T01:36:23.401Z,2.85
2017-03-07T01:37:24.169Z,2.87
2017-03-07T01:38:24.161Z,2.78
2017-03-07T01:39:24.156Z,2.81
2017-03-07T01:40:24.133Z,2.8
2017-03-07T01:41:24.109Z,2.76
2017-03-07T01:42:24.094Z,2.81
2017-03-07T01:43:23.695Z,2.81
2017-03-07T01:44:24.072Z,2.81
2017-03-07T01:45:23.666Z,2.73
2017-03-07T01:46:24.036Z,2.69
2017-03-07T01:47:24.035Z,2.66
2017-03-07T01:48:23.617Z,2.66
2017-03-07T01:49:24.005Z,2.59
2017-03-07T01:50:23.976Z,2.66
2017-03-07T01:51:23.959Z,2.63
2017-03-07T01:52:23.946Z,2.6
2017-03-07T01:53:23.941Z,2.59
2017-03-07T01:54:23.921Z,2.55
2017-03-07T01:55:23.909Z,2.6
2017-03-07T01:56:23.894Z,2.58
2017-03-07T01:57:23.886Z,2.54
2017-03-07T01:58:23.858Z,2.54
2017-03-07T01:59:23.841Z,2.51
2017-03-07T02:00:23.838Z,2.58
2017-03-07T02:01:23.822Z,2.55
2017-03-07T02:02:23.797Z,2.52
2017-03-07T02:03:23.394Z,2.51
2017-03-07T02:04:23.776Z,2.49
2017-03-07T02:05:23.761Z,2.45
2017-03-07T02:06:23.740Z,2.47
2017-03-07T02:07:23.719Z,2.49
2017-03-07T02:08:23.702Z,2.49
2017-03-07T02:09:23.694Z,2.48
2017-03-07T02:10:23.711Z,2.45
2017-03-07T02:11:23.661Z,2.55
2017-03-07T02:12:23.641Z,2.49
2017-03-07T02:13:23.632Z,2.58
2017-03-07T02:14:23.627Z,2.6
2017-03-07T02:15:23.606Z,2.52
2017-03-07T02:16:23.584Z,2.52
2017-03-07T02:17:23.569Z,2.55
2017-03-07T02:18:23.168Z,2.55
2017-03-07T02:19:23.545Z,2.51
2017-03-07T02:20:23.526Z,2.55
2017-03-07T02:21:23.516Z,2.58
2017-03-07T02:22:23.494Z,2.55
2017-03-07T02:23:23.472Z,2.58
2017-03-07T02:24:23.483Z,2.55
2017-03-07T02:25:23.462Z,2.52
2017-03-07T02:26:23.443Z,2.55
2017-03-07T02:27:23.410Z,2.6
2017-03-07T02:28:23.402Z,2.51
2017-03-07T02:29:23.380Z,2.54
2017-03-07T02:30:23.368Z,2.54
2017-03-07T02:31:22.957Z,2.62
2017-03-07T02:32:23.344Z,2.67
2017-03-07T02:33:23.330Z,2.58
2017-03-07T02:34:23.312Z,2.66
2017-03-07T02:35:23.289Z,2.66
2017-03-07T02:36:23.285Z,2.6
2017-03-07T02:37:23.261Z,2.63
2017-03-07T02:38:23.258Z,2.59
2017-03-07T02:39:23.233Z,2.72
2017-03-07T02:40:23.230Z,2.67
2017-03-07T02:41:23.208Z,2.67
2017-03-07T02:42:23.187Z,2.67
2017-03-07T02:43:23.174Z,2.66
2017-03-07T02:44:22.758Z,2.72
2017-03-07T02:45:23.146Z,2.77
2017-03-07T02:46:22.747Z,2.72
2017-03-07T02:47:23.138Z,2.69
2017-03-07T02:48:23.112Z,2.73
2017-03-07T02:49:23.081Z,2.73
2017-03-07T02:50:23.073Z,2.81
2017-03-07T02:51:23.065Z,2.78
2017-03-07T02:52:22.639Z,2.73
2017-03-07T02:53:23.021Z,2.77
2017-03-07T02:54:22.613Z,2.76
2017-03-07T02:55:23.002Z,2.81
2017-03-07T02:56:22.992Z,2.8
2017-03-07T02:57:22.565Z,2.81
2017-03-07T02:58:22.960Z,2.81
2017-03-07T02:59:22.931Z,2.8
2017-03-07T03:00:22.934Z,2.77
2017-03-07T03:01:22.908Z,2.78
2017-03-07T03:02:22.895Z,2.7
2017-03-07T03:03:22.500Z,2.81
2017-03-07T03:04:22.858Z,2.72
2017-03-07T03:05:22.853Z,2.66
2017-03-07T03:06:22.828Z,2.65
2017-03-07T03:07:22.826Z,2.65
2017-03-07T03:08:22.398Z,2.63
2017-03-07T03:09:22.791Z,2.55
2017-03-07T03:10:22.778Z,2.58
2017-03-07T03:11:22.759Z,2.54
2017-03-07T03:12:22.740Z,2.51
2017-03-07T03:13:22.731Z,2.55
2017-03-07T03:14:22.712Z,2.55
2017-03-07T03:15:22.701Z,2.58
2017-03-07T03:16:22.685Z,2.51
2017-03-07T03:17:22.667Z,2.48
2017-03-07T03:18:22.256Z,2.52
2017-03-07T03:19:22.645Z,2.48
2017-03-07T03:20:22.222Z,2.49
2017-03-07T03:21:22.613Z,2.36
2017-03-07T03:22:22.609Z,2.4
2017-03-07T03:23:22.179Z,2.4
2017-03-07T03:24:22.557Z,2.3
2017-03-07T03:25:22.545Z,2.34
2017-03-07T03:26:22.537Z,2.15
2017-03-07T03:27:22.520Z,2.18
2017-03-07T03:28:22.097Z,2.16
2017-03-07T03:29:22.520Z,2.13
2017-03-07T03:30:22.465Z,2.09
2017-03-07T03:31:22.065Z,2.13
2017-03-07T03:32:22.039Z,2.09
2017-03-07T03:33:22.029Z,2.09
2017-03-07T03:34:22.010Z,2.13
2017-03-07T03:35:22.396Z,2.13
2017-03-07T03:36:22.413Z,2.08
2017-03-07T03:37:22.359Z,2.06
2017-03-07T03:38:22.361Z,2.15
2017-03-07T03:39:22.325Z,2.11
2017-03-07T03:40:22.311Z,2.04
2017-03-07T03:41:22.299Z,2.15
2017-03-07T03:42:21.888Z,2.12
2017-03-07T03:43:22.275Z,2.15
2017-03-07T03:44:22.282Z,2.12
2017-03-07T03:45:22.251Z,2.12
2017-03-07T03:46:21.836Z,2.18
2017-03-07T03:47:22.216Z,2.15
2017-03-07T03:48:22.196Z,2.2
2017-03-07T03:49:22.193Z,2.13
2017-03-07T03:50:22.153Z,2.15
2017-03-07T03:51:22.139Z,2.15
2017-03-07T03:52:22.131Z,2.12
2017-03-07T03:53:22.121Z,2.16
2017-03-07T03:54:22.099Z,2.2
2017-03-07T03:55:22.088Z,2.15
2017-03-07T03:56:22.067Z,2.16
2017-03-07T03:57:22.063Z,2.2
2017-03-07T03:58:22.044Z,2.15
2017-03-07T03:59:22.025Z,2.24
2017-03-07T04:00:22.008Z,2.13
2017-03-07T04:01:22.003Z,2.16
2017-03-07T04:02:21.986Z,2.22
2017-03-07T04:03:21.954Z,2.13
2017-03-07T04:04:21.942Z,2.12
2017-03-07T04:05:21.927Z,2.18
2017-03-07T04:06:21.908Z,2.05
2017-03-07T04:07:21.906Z,2.11
2017-03-07T04:08:21.914Z,2.12
2017-03-07T04:09:21.861Z,2.15
2017-03-07T04:10:21.863Z,2.16
2017-03-07T04:11:21.829Z,2.11
2017-03-07T04:12:21.825Z,2.05
2017-03-07T04:13:21.799Z,2.15
2017-03-07T04:14:21.786Z,2.09
2017-03-07T04:15:21.770Z,2.13
2017-03-07T04:16:21.752Z,2.09
2017-03-07T04:17:21.734Z,2.12
2017-03-07T04:18:21.744Z,2.16
2017-03-07T04:19:21.306Z,2.15
2017-03-07T04:20:21.696Z,2.05
2017-03-07T04:21:21.705Z,2.04
2017-03-07T04:22:21.692Z,2.12
2017-03-07T04:23:21.262Z,2.05
2017-03-07T04:24:21.628Z,2.11
2017-03-07T04:25:21.613Z,2.06
2017-03-07T04:26:21.599Z,1.94
2017-03-07T04:27:21.588Z,1.97
2017-03-07T04:28:21.582Z,1.93
2017-03-07T04:29:21.547Z,2.02
2017-03-07T04:30:21.539Z,2.08
2017-03-07T04:31:21.528Z,1.97
2017-03-07T04:32:21.509Z,1.97
2017-03-07T04:33:21.102Z,1.94
2017-03-07T04:34:21.473Z,2.01
2017-03-07T04:35:21.473Z,2.06
2017-03-07T04:36:21.443Z,2.02
2017-03-07T04:37:21.426Z,2.04
2017-03-07T04:38:21.410Z,1.93
2017-03-07T04:39:21.396Z,1.92
2017-03-07T04:40:21.375Z,1.92
2017-03-07T04:41:20.966Z,1.93
2017-03-07T04:42:21.348Z,1.94
2017-03-07T04:43:21.334Z,1.92
2017-03-07T04:44:20.920Z,1.87
2017-03-07T04:45:21.304Z,1.86
2017-03-07T04:46:21.281Z,1.84
2017-03-07T04:47:21.272Z,1.82
2017-03-07T04:48:21.251Z,1.89
2017-03-07T04:49:21.251Z,1.83
2017-03-07T04:50:21.228Z,1.84
2017-03-07T04:51:21.201Z,1.87
2017-03-07T04:52:21.194Z,1.72
2017-03-07T04:53:21.170Z,1.71
2017-03-07T04:54:21.164Z,1.71
2017-03-07T04:55:21.140Z,1.69
2017-03-07T04:56:21.132Z,1.57
2017-03-07T04:57:21.111Z,1.61
2017-03-07T04:58:21.104Z,1.66
2017-03-07T04:59:21.098Z,1.6
2017-03-07T05:00:21.064Z,1.51
2017-03-07T05:01:21.062Z,1.57
2017-03-07T05:02:21.028Z,1.58
2017-03-07T05:03:21.017Z,1.57
2017-03-07T05:04:21.001Z,1.56
2017-03-07T05:05:20.983Z,1.53
2017-03-07T05:06:20.970Z,1.44
2017-03-07T05:07:20.954Z,1.5
2017-03-07T05:08:20.939Z,1.51
2017-03-07T05:09:20.924Z,1.48
2017-03-07T05:10:20.902Z,1.48
2017-03-07T05:11:20.896Z,1.5
2017-03-07T05:12:20.872Z,1.57
2017-03-07T05:13:20.857Z,1.42
2017-03-07T05:14:20.843Z,1.47
2017-03-07T05:15:20.832Z,1.47
2017-03-07T05:16:20.824Z,1.46
2017-03-07T05:17:20.397Z,1.42
2017-03-07T05:18:20.781Z,1.48
2017-03-07T05:19:20.774Z,1.51
2017-03-07T05:20:20.748Z,1.4
2017-03-07T05:21:20.343Z,1.51
2017-03-07T05:22:20.716Z,1.5
2017-03-07T05:23:20.716Z,1.42
2017-03-07T05:24:20.693Z,1.53
2017-03-07T05:25:20.664Z,1.46
2017-03-07T05:26:20.655Z,1.48
2017-03-07T05:27:20.635Z,1.38
2017-03-07T05:28:20.623Z,1.39
2017-03-07T05:29:20.609Z,1.4
2017-03-07T05:30:20.583Z,1.39
2017-03-07T05:31:20.603Z,1.35
2017-03-07T05:32:20.561Z,1.39
2017-03-07T05:33:20.549Z,1.38
2017-03-07T05:34:20.122Z,1.33
2017-03-07T05:35:20.518Z,1.26
2017-03-07T05:36:20.492Z,1.29
2017-03-07T05:37:20.076Z,1.24
2017-03-07T05:38:20.464Z,1.33
2017-03-07T05:39:20.439Z,1.35
2017-03-07T05:40:20.426Z,1.28
2017-03-07T05:41:20.012Z,1.29
2017-03-07T05:42:20.399Z,1.32
2017-03-07T05:43:20.376Z,1.39
2017-03-07T05:44:20.359Z,1.29
2017-03-07T05:45:20.345Z,1.38
2017-03-07T05:46:20.339Z,1.36
2017-03-07T05:47:20.323Z,1.42
2017-03-07T05:48:20.294Z,1.42
2017-03-07T05:49:20.281Z,1.39
2017-03-07T05:50:20.265Z,1.39
2017-03-07T05:51:20.275Z,1.35
2017-03-07T05:52:20.236Z,1.35
2017-03-07T05:53:20.228Z,1.36
2017-03-07T05:54:20.207Z,1.33
2017-03-07T05:55:19.787Z,1.38
2017-03-07T05:56:19.769Z,1.46
2017-03-07T05:57:20.153Z,1.44
2017-03-07T05:58:20.138Z,1.47
2017-03-07T05:59:20.121Z,1.51
2017-03-07T06:00:20.141Z,1.48
2017-03-07T06:01:19.690Z,1.48
2017-03-07T06:02:20.074Z,1.46
2017-03-07T06:03:20.056Z,1.48
2017-03-07T06:04:20.061Z,1.53
2017-03-07T06:05:20.046Z,1.48
2017-03-07T06:06:20.035Z,1.46
2017-03-07T06:07:20.003Z,1.56
2017-03-07T06:08:19.990Z,1.47
2017-03-07T06:09:19.969Z,1.47
2017-03-07T06:10:19.962Z,1.53
2017-03-07T06:11:19.946Z,1.47
2017-03-07T06:12:19.934Z,1.53
2017-03-07T06:13:19.515Z,1.47
2017-03-07T06:14:19.880Z,1.5
2017-03-07T06:15:19.879Z,1.5
2017-03-07T06:16:19.851Z,1.44
2017-03-07T06:17:19.835Z,1.46
2017-03-07T06:18:19.034Z,1.5
2017-03-07T06:19:19.417Z,1.51
2017-03-07T06:20:19.393Z,1.48
2017-03-07T06:21:19.776Z,1.56
2017-03-07T06:22:19.767Z,1.56
2017-03-07T06:23:19.740Z,1.57
2017-03-07T06:24:19.730Z,1.61
2017-03-07T06:25:19.712Z,1.58
2017-03-07T06:26:19.695Z,1.6
2017-03-07T06:27:19.686Z,1.58
2017-03-07T06:28:19.689Z,1.64
2017-03-07T06:29:19.677Z,1.66
2017-03-07T06:30:19.638Z,1.64
2017-03-07T06:31:19.634Z,1.66
2017-03-07T06:32:19.617Z,1.69
2017-03-07T06:33:19.598Z,1.61
2017-03-07T06:34:18.784Z,1.6
2017-03-07T06:35:19.559Z,1.6
2017-03-07T06:36:19.140Z,1.71
2017-03-07T06:37:19.142Z,1.68
2017-03-07T06:38:19.505Z,1.64
2017-03-07T06:39:19.497Z,1.69
2017-03-07T06:40:19.475Z,1.72
2017-03-07T06:41:19.478Z,1.6
2017-03-07T06:42:19.461Z,1.71
2017-03-07T06:43:19.436Z,1.57
2017-03-07T06:44:19.420Z,1.57
2017-03-07T06:45:19.000Z,1.6
2017-03-07T06:46:19.379Z,1.56
2017-03-07T06:47:19.375Z,1.68
2017-03-07T06:48:18.962Z,1.61
2017-03-07T06:49:19.344Z,1.71
2017-03-07T06:50:18.931Z,1.69
2017-03-07T06:51:18.907Z,1.72
2017-03-07T06:52:19.286Z,1.69
2017-03-07T06:53:19.275Z,1.76
2017-03-07T06:54:19.256Z,1.68
2017-03-07T06:55:19.249Z,1.69
2017-03-07T06:56:19.223Z,1.71
2017-03-07T06:57:19.219Z,1.76
2017-03-07T06:58:18.797Z,1.68
2017-03-07T06:59:19.184Z,1.74
2017-03-07T07:00:19.174Z,1.68
2017-03-07T07:01:19.148Z,1.76
2017-03-07T07:02:19.128Z,1.76
2017-03-07T07:03:19.119Z,1.74
2017-03-07T07:04:19.098Z,1.76
2017-03-07T07:05:19.088Z,1.74
2017-03-07T07:06:19.073Z,1.71
2017-03-07T07:07:19.049Z,1.75
2017-03-07T07:08:19.041Z,1.72
2017-03-07T07:09:19.017Z,1.71
2017-03-07T07:10:19.003Z,1.76
2017-03-07T07:11:19.026Z,1.75
2017-03-07T07:12:18.982Z,1.71
2017-03-07T07:13:18.970Z,1.76
2017-03-07T07:14:18.939Z,1.74
2017-03-07T07:15:18.926Z,1.74
2017-03-07T07:16:18.925Z,1.69
2017-03-07T07:17:18.896Z,1.75
2017-03-07T07:18:18.888Z,1.76
2017-03-07T07:19:18.861Z,1.82
2017-03-07T07:20:18.847Z,1.87
2017-03-07T07:21:18.844Z,1.84
2017-03-07T07:22:18.821Z,1.82
2017-03-07T07:23:18.810Z,1.82
2017-03-07T07:24:18.791Z,1.83
2017-03-07T07:25:18.779Z,1.89
2017-03-07T07:26:18.756Z,2.02
2017-03-07T07:27:18.737Z,2.02
2017-03-07T07:28:18.735Z,2.08
2017-03-07T07:29:18.715Z,2.11
2017-03-07T07:30:18.687Z,2.06
2017-03-07T07:31:18.677Z,2.08
2017-03-07T07:32:18.673Z,2.04
2017-03-07T07:33:18.663Z,2.01
2017-03-07T07:34:18.625Z,2.16
2017-03-07T07:35:18.624Z,2.11
2017-03-07T07:36:18.601Z,2.13
2017-03-07T07:37:18.577Z,2.13
2017-03-07T07:38:18.570Z,2.12
2017-03-07T07:39:18.557Z,2.16
2017-03-07T07:40:18.547Z,2.15
2017-03-07T07:41:18.517Z,2.15
2017-03-07T07:42:18.517Z,2.16
2017-03-07T07:43:18.488Z,2.16
2017-03-07T07:44:18.480Z,2.2
2017-03-07T07:45:18.070Z,2.23
2017-03-07T07:46:18.440Z,2.27
2017-03-07T07:47:18.422Z,2.31
2017-03-07T07:48:18.410Z,2.34
2017-03-07T07:49:18.400Z,2.41
2017-03-07T07:50:18.377Z,2.4
2017-03-07T07:51:18.364Z,2.45
2017-03-07T07:52:18.349Z,2.44
2017-03-07T07:53:18.344Z,2.49
2017-03-07T07:54:18.317Z,2.47
2017-03-07T07:55:18.304Z,2.34
2017-03-07T07:56:18.308Z,2.45
2017-03-07T07:57:18.268Z,2.49
2017-03-07T07:58:18.266Z,2.44
2017-03-07T07:59:18.244Z,2.36
2017-03-07T08:00:18.238Z,2.33
2017-03-07T08:01:18.211Z,2.33
2017-03-07T08:02:18.208Z,2.3
2017-03-07T08:03:18.180Z,2.36
2017-03-07T08:04:18.171Z,2.34
2017-03-07T08:05:18.155Z,2.36
2017-03-07T08:06:17.748Z,2.31
2017-03-07T08:07:18.129Z,2.36
2017-03-07T08:08:18.107Z,2.3
2017-03-07T08:09:18.103Z,2.34
2017-03-07T08:10:18.088Z,2.42
2017-03-07T08:11:18.056Z,2.45
2017-03-07T08:12:17.647Z,2.4
2017-03-07T08:13:18.025Z,2.33
2017-03-07T08:14:18.017Z,2.47
2017-03-07T08:15:17.996Z,2.4
2017-03-07T08:16:18.042Z,2.38
2017-03-07T08:17:17.590Z,2.3
2017-03-07T08:18:17.956Z,2.31
2017-03-07T08:19:17.951Z,2.27
2017-03-07T08:20:17.926Z,2.31
2017-03-07T08:21:17.923Z,2.31
2017-03-07T08:22:18.013Z,2.29
2017-03-07T08:23:17.891Z,2.2
2017-03-07T08:24:17.464Z,2.23
2017-03-07T08:25:17.855Z,2.26
2017-03-07T08:27:46.778Z,2.33
2017-03-07T08:28:17.800Z,2.29
2017-03-07T08:29:17.779Z,2.3
2017-03-07T08:30:17.794Z,2.3
2017-03-07T08:31:17.352Z,2.31
2017-03-07T08:32:17.738Z,2.27
2017-03-07T08:33:17.723Z,2.31
2017-03-07T08:34:17.712Z,2.36
2017-03-07T08:35:17.701Z,2.31
2017-03-07T08:36:17.673Z,2.38
2017-03-07T08:37:17.679Z,2.3
2017-03-07T08:38:17.704Z,2.36
2017-03-07T08:39:17.630Z,2.31
2017-03-07T08:40:17.215Z,2.34
2017-03-07T08:41:17.604Z,2.36
2017-03-07T08:42:17.587Z,2.44
2017-03-07T08:43:17.622Z,2.45
2017-03-07T08:44:17.566Z,2.47
2017-03-07T08:45:17.580Z,2.42
2017-03-07T08:46:17.522Z,2.45
2017-03-07T08:47:17.508Z,2.36
2017-03-07T08:48:17.494Z,2.44
2017-03-07T08:49:17.500Z,2.33
2017-03-07T08:50:17.466Z,2.31
2017-03-07T08:51:17.445Z,2.34
2017-03-07T08:52:17.429Z,2.27
2017-03-07T08:53:17.426Z,2.31
2017-03-07T08:54:17.412Z,2.36
2017-03-07T08:55:17.382Z,2.34
2017-03-07T08:56:17.382Z,2.29
2017-03-07T08:57:17.355Z,2.3
2017-03-07T08:58:17.338Z,2.27
2017-03-07T08:59:17.326Z,2.33
2017-03-07T09:00:16.923Z,2.3
2017-03-07T09:01:17.300Z,2.29
2017-03-07T09:02:17.281Z,2.36
2017-03-07T09:03:17.278Z,2.3
2017-03-07T09:04:17.259Z,2.31
2017-03-07T09:05:16.849Z,2.4
2017-03-07T09:06:17.220Z,2.31
2017-03-07T09:07:17.198Z,2.29
2017-03-07T09:08:16.792Z,2.41
2017-03-07T09:09:17.181Z,2.36
2017-03-07T09:10:17.155Z,2.42
2017-03-07T09:11:17.140Z,2.48
2017-03-07T09:12:17.134Z,2.44
2017-03-07T09:13:17.109Z,2.45
2017-03-07T09:14:17.112Z,2.36
2017-03-07T09:15:17.097Z,2.36
2017-03-07T09:16:17.074Z,2.44
2017-03-07T09:17:17.072Z,2.36
2017-03-07T09:18:17.037Z,2.49
2017-03-07T09:19:17.030Z,2.51
2017-03-07T09:20:16.616Z,2.54
2017-03-07T09:21:16.925Z,2.54
2017-03-07T09:22:17.870Z,2.55
2017-03-07T09:23:17.396Z,2.58
2017-03-07T09:24:17.828Z,2.55
2017-03-07T09:25:17.537Z,2.6
2017-03-07T09:26:16.544Z,2.52
2017-03-07T09:27:16.931Z,2.7
2017-03-07T09:28:16.880Z,2.62
2017-03-07T09:29:16.874Z,2.52
2017-03-07T09:30:16.853Z,2.42
2017-03-07T09:31:16.846Z,2.4
2017-03-07T09:32:16.835Z,2.29
2017-03-07T09:33:16.832Z,2.3
2017-03-07T09:34:16.805Z,2.3
2017-03-07T09:35:16.779Z,2.36
2017-03-07T09:36:16.764Z,2.24
2017-03-07T09:37:16.743Z,2.18
2017-03-07T09:38:16.743Z,2.16
2017-03-07T09:39:16.320Z,2.05
2017-03-07T09:40:16.714Z,2.08
2017-03-07T09:41:16.688Z,2.08
2017-03-07T09:42:16.669Z,2.11
2017-03-07T09:43:16.669Z,2.08
2017-03-07T09:44:16.249Z,2.15
2017-03-07T09:45:16.638Z,2.08
2017-03-07T09:46:16.213Z,2.16
2017-03-07T09:47:17.135Z,2.22
2017-03-07T09:48:16.581Z,2.29
2017-03-07T09:49:16.561Z,2.33
2017-03-07T09:50:16.621Z,2.3
2017-03-07T09:51:16.544Z,2.31
2017-03-07T09:52:16.531Z,2.41
2017-03-07T09:53:16.501Z,2.4
2017-03-07T09:54:16.486Z,2.44
2017-03-07T09:55:16.481Z,2.31
2017-03-07T09:56:16.468Z,2.2
2017-03-07T09:57:16.450Z,2.22
2017-03-07T09:58:16.425Z,2.15
2017-03-07T09:59:16.405Z,2.04
2017-03-07T10:00:16.405Z,2.15
2017-03-07T10:01:16.550Z,2.13
2017-03-07T10:02:16.636Z,2.23
2017-03-07T10:03:16.395Z,2.2
2017-03-07T10:04:16.335Z,2.15
2017-03-07T10:05:16.321Z,2.29
2017-03-07T10:06:16.316Z,2.34
2017-03-07T10:07:16.286Z,2.34
2017-03-07T10:08:15.874Z,2.33
2017-03-07T10:09:16.259Z,2.27
2017-03-07T10:10:16.253Z,2.31
2017-03-07T10:11:16.225Z,2.33
2017-03-07T10:12:16.213Z,2.38
2017-03-07T10:13:16.206Z,2.41
2017-03-07T10:14:16.227Z,2.45
2017-03-07T10:15:16.182Z,2.51
2017-03-07T10:16:16.172Z,2.51
2017-03-07T10:17:16.148Z,2.58
2017-03-07T10:18:16.127Z,2.6
2017-03-07T10:19:16.105Z,2.62
2017-03-07T10:20:16.101Z,2.76
2017-03-07T10:21:16.088Z,2.73
2017-03-07T10:22:16.067Z,2.72
2017-03-07T10:23:16.046Z,2.72
2017-03-07T10:24:16.029Z,2.81
2017-03-07T10:25:16.037Z,2.7
2017-03-07T10:26:16.000Z,2.77
2017-03-07T10:27:15.985Z,2.76
2017-03-07T10:28:15.572Z,2.73
2017-03-07T10:29:15.954Z,2.83
2017-03-07T10:30:15.947Z,2.77
2017-03-07T10:31:15.923Z,2.85
2017-03-07T10:32:15.928Z,2.81
2017-03-07T10:33:15.894Z,2.8
2017-03-07T10:34:15.886Z,2.93
2017-03-07T10:35:15.861Z,2.84
2017-03-07T10:36:15.869Z,2.87
2017-03-07T10:37:15.832Z,2.88
2017-03-07T10:38:15.818Z,2.91
2017-03-07T10:39:15.813Z,2.88
2017-03-07T10:40:15.807Z,2.93
2017-03-07T10:41:15.788Z,2.9
2017-03-07T10:42:15.756Z,2.81
2017-03-07T10:43:15.759Z,2.9
2017-03-07T10:44:15.343Z,2.8
2017-03-07T10:45:15.713Z,2.8
2017-03-07T10:46:15.718Z,2.8
2017-03-07T10:47:15.703Z,2.84
2017-03-07T10:48:15.674Z,2.77
2017-03-07T10:49:15.653Z,2.83
2017-03-07T10:50:15.640Z,2.8
2017-03-07T10:51:15.646Z,2.87
2017-03-07T10:52:15.620Z,2.99
2017-03-07T10:53:15.605Z,2.99
2017-03-07T10:54:15.579Z,3.02
2017-03-07T10:55:15.580Z,2.95
2017-03-07T10:56:15.551Z,3.2
2017-03-07T10:57:15.552Z,3.21
2017-03-07T10:58:15.528Z,3.37
2017-03-07T10:59:15.514Z,3.4
2017-03-07T11:00:15.507Z,3.39
2017-03-07T11:01:15.478Z,3.42
2017-03-07T11:02:15.071Z,3.46
2017-03-07T11:03:15.452Z,3.43
2017-03-07T11:04:15.441Z,3.4
2017-03-07T11:05:15.431Z,3.3
2017-03-07T11:06:15.415Z,3.19
2017-03-07T11:07:15.389Z,3.2
2017-03-07T11:08:15.415Z,3.2
2017-03-07T11:09:15.364Z,3.09
2017-03-07T11:10:15.348Z,3.17
2017-03-07T11:11:15.331Z,3.19
2017-03-07T11:12:15.335Z,3.09
2017-03-07T11:13:15.307Z,3.17
2017-03-07T11:14:14.899Z,3.06
2017-03-07T11:15:15.294Z,2.91
2017-03-07T11:16:15.304Z,2.9
2017-03-07T11:17:15.258Z,3.03
2017-03-07T11:18:15.245Z,2.9
2017-03-07T11:19:15.227Z,2.81
2017-03-07T11:20:15.216Z,2.7
2017-03-07T11:21:15.189Z,2.7
2017-03-07T11:22:15.180Z,2.59
2017-03-07T11:23:15.158Z,2.63
2017-03-07T11:24:15.142Z,2.62
2017-03-07T11:25:15.130Z,2.72
2017-03-07T11:26:15.121Z,2.73
2017-03-07T11:27:15.105Z,2.8
2017-03-07T11:28:15.100Z,2.81
2017-03-07T11:29:15.081Z,2.93
2017-03-07T11:30:15.064Z,2.96
2017-03-07T11:31:15.040Z,3.01
2017-03-07T11:32:15.058Z,2.98
2017-03-07T11:33:15.019Z,2.98
2017-03-07T11:34:15.002Z,2.91
2017-03-07T11:35:15.039Z,2.81
2017-03-07T11:36:14.964Z,2.83
2017-03-07T11:37:14.967Z,2.85
2017-03-07T11:38:14.948Z,2.84
2017-03-07T11:39:14.923Z,2.83
2017-03-07T11:40:14.921Z,2.87
2017-03-07T11:41:14.895Z,2.99
2017-03-07T11:42:14.485Z,2.96
2017-03-07T11:43:14.466Z,2.95
2017-03-07T11:44:14.875Z,2.84
2017-03-07T11:45:14.436Z,2.96
2017-03-07T11:46:14.818Z,3.01
2017-03-07T11:47:14.809Z,2.93
2017-03-07T11:48:14.789Z,2.96
2017-03-07T11:49:14.787Z,3.06
2017-03-07T11:50:14.759Z,2.95
2017-03-07T11:51:14.748Z,3.02
2017-03-07T11:52:14.756Z,3.02
2017-03-07T11:53:14.716Z,3.05
2017-03-07T11:54:14.338Z,3.13
2017-03-07T11:55:14.741Z,3.19
2017-03-07T11:56:14.691Z,3.14
2017-03-07T11:57:14.657Z,3.21
2017-03-07T11:58:14.653Z,3.05
2017-03-07T11:59:14.632Z,2.96
2017-03-07T12:00:14.613Z,2.91
2017-03-07T12:01:14.630Z,2.8
2017-03-07T12:02:14.191Z,2.84
2017-03-07T12:03:14.571Z,2.8
2017-03-07T12:04:14.171Z,2.76
2017-03-07T12:05:14.554Z,2.77
2017-03-07T12:06:14.542Z,2.66
2017-03-07T12:07:14.518Z,2.69
2017-03-07T12:08:14.508Z,2.6
2017-03-07T12:09:14.484Z,2.59
2017-03-07T12:10:14.473Z,2.58
2017-03-07T12:11:14.451Z,2.54
2017-03-07T12:12:14.440Z,2.59
2017-03-07T12:13:14.422Z,2.48
2017-03-07T12:14:14.413Z,2.55
2017-03-07T12:15:14.404Z,2.54
2017-03-07T12:16:14.399Z,2.59
2017-03-07T12:17:14.363Z,2.59
2017-03-07T12:18:14.350Z,2.51
2017-03-07T12:19:14.350Z,2.48
2017-03-07T12:20:13.935Z,2.51
2017-03-07T12:21:13.935Z,2.48
2017-03-07T12:22:14.299Z,2.55
2017-03-07T12:23:14.287Z,2.65
2017-03-07T12:24:14.267Z,2.59
2017-03-07T12:25:14.251Z,2.66
2017-03-07T12:26:14.256Z,2.77
2017-03-07T12:27:14.229Z,2.84
2017-03-07T12:28:14.224Z,2.78
2017-03-07T12:29:14.192Z,2.83
2017-03-07T12:30:14.170Z,2.83
2017-03-07T12:31:14.154Z,2.78
2017-03-07T12:32:14.153Z,2.8
2017-03-07T12:33:14.122Z,2.8
2017-03-07T12:34:14.116Z,2.83
2017-03-07T12:35:14.101Z,2.84
2017-03-07T12:36:14.090Z,2.81
2017-03-07T12:37:14.077Z,2.7
2017-03-07T12:38:14.051Z,2.77
2017-03-07T12:39:13.659Z,2.69
2017-03-07T12:40:14.069Z,2.76
2017-03-07T12:41:14.025Z,2.58
2017-03-07T12:42:14.012Z,2.58
2017-03-07T12:43:13.982Z,2.55
2017-03-07T12:44:14.898Z,2.51
2017-03-07T12:45:13.949Z,2.58
2017-03-07T12:46:13.934Z,2.47
2017-03-07T12:47:13.921Z,2.59
2017-03-07T12:48:13.908Z,2.55
2017-03-07T12:49:14.075Z,2.55
2017-03-07T12:50:14.051Z,2.54
2017-03-07T12:51:14.472Z,2.52
2017-03-07T12:52:14.083Z,2.58
2017-03-07T12:53:13.815Z,2.58
2017-03-07T12:54:13.807Z,2.58
2017-03-07T12:55:13.794Z,2.58
2017-03-07T12:56:13.795Z,2.58
2017-03-07T12:57:13.763Z,2.51
2017-03-07T12:58:13.748Z,2.55
2017-03-07T12:59:13.752Z,2.58
2017-03-07T13:00:13.718Z,2.54
2017-03-07T13:01:13.702Z,2.54
2017-03-07T13:02:13.686Z,2.55
2017-03-07T13:03:13.679Z,2.55
2017-03-07T13:04:13.659Z,2.54
2017-03-07T13:05:13.654Z,2.6
2017-03-07T13:06:13.635Z,2.62
2017-03-07T13:07:13.622Z,2.65
2017-03-07T13:08:13.601Z,2.66
2017-03-07T13:09:13.582Z,2.63
2017-03-07T13:10:13.563Z,2.72
2017-03-07T13:11:52.791Z,2.77
2017-03-07T13:12:13.570Z,2.7
2017-03-07T13:13:13.557Z,2.67
2017-03-07T13:14:13.525Z,2.69
2017-03-07T13:15:13.508Z,2.63
2017-03-07T13:16:13.111Z,2.73
2017-03-07T13:17:13.504Z,2.67
2017-03-07T13:18:13.489Z,2.69
2017-03-07T13:19:13.444Z,2.65
2017-03-07T13:20:13.411Z,2.77
2017-03-07T13:21:13.404Z,2.59
2017-03-07T13:22:13.382Z,2.65